createdAt,value
2018-11-05T00:01:58.327Z,48.50
2018-11-05T00:04:27.252Z,48.43
2018-11-05T00:06:54.789Z,48.23
2018-11-05T00:09:22.311Z,48.42
2018-11-05T00:11:49.838Z,48.54
2018-11-05T00:14:17.353Z,49.12
2018-11-05T00:16:45.856Z,49.38
2018-11-05T00:23:48.691Z,50.89
2018-11-05T00:26:17.544Z,49.80
2018-11-05T00:28:47.204Z,49.29
2018-11-05T00:31:14.713Z,49.05
2018-11-05T00:33:42.454Z,48.62
2018-11-05T00:36:09.880Z,48.66
2018-11-05T00:38:37.322Z,48.45
2018-11-05T00:41:06.104Z,49.68
2018-11-05T00:43:33.554Z,49.61
2018-11-05T00:46:01.077Z,50.66
2018-11-05T00:48:30.178Z,49.92
2018-11-05T00:50:57.688Z,50.29
2018-11-05T00:53:26.159Z,50.46
2018-11-05T00:55:53.953Z,49.82
2018-11-05T00:58:21.383Z,50.47
2018-11-05T01:00:49.080Z,50.41
2018-11-05T01:03:16.682Z,50.42
2018-11-05T01:05:45.570Z,50.24
2018-11-05T01:08:13.042Z,50.38
2018-11-05T01:10:40.735Z,50.26
2018-11-05T01:13:08.247Z,50.17
2018-11-05T01:15:35.682Z,50.71
2018-11-05T01:18:04.139Z,50.90
2018-11-05T01:20:31.744Z,50.46
2018-11-05T01:22:59.418Z,49.92
2018-11-05T01:25:27.022Z,50.29
2018-11-05T01:27:54.628Z,50.26
2018-11-05T01:30:23.469Z,49.46
2018-11-05T01:32:51.562Z,49.33
2018-11-05T01:35:18.973Z,49.63
2018-11-05T01:37:46.533Z,49.88
2018-11-05T01:40:14.955Z,50.13
2018-11-05T01:42:43.740Z,50.57
2018-11-05T01:45:12.325Z,50.73
2018-11-05T01:47:40.462Z,50.48
2018-11-05T01:50:10.465Z,50.52
2018-11-05T01:52:38.222Z,50.42
2018-11-05T01:55:07.745Z,50.16
2018-11-05T01:57:35.393Z,50.11
2018-11-05T02:00:03.369Z,49.78
2018-11-05T02:02:30.978Z,49.69
2018-11-05T02:04:58.481Z,49.54
2018-11-05T02:07:28.506Z,49.44
2018-11-05T02:09:56.453Z,50.65
2018-11-05T02:12:23.988Z,50.80
2018-11-05T02:14:51.546Z,50.00
2018-11-05T02:17:20.065Z,50.45
2018-11-05T02:19:49.765Z,50.30
2018-11-05T02:22:17.283Z,51.19
2018-11-05T02:24:44.816Z,50.41
2018-11-05T02:27:12.480Z,51.25
2018-11-05T02:29:39.985Z,51.63
2018-11-05T02:32:09.758Z,50.95
2018-11-05T02:34:37.228Z,50.21
2018-11-05T02:37:05.417Z,49.88
2018-11-05T02:39:33.143Z,50.26
2018-11-05T02:42:00.660Z,49.67
2018-11-05T02:44:30.269Z,49.44
2018-11-05T02:46:57.851Z,49.44
2018-11-05T02:49:25.282Z,48.93
2018-11-05T02:51:54.077Z,48.66
2018-11-05T02:54:21.558Z,49.17
2018-11-05T02:56:49.981Z,48.88
2018-11-05T02:59:17.501Z,48.68
2018-11-05T03:01:46.340Z,48.41
2018-11-05T03:04:13.823Z,48.90
2018-11-05T03:06:41.284Z,48.89
2018-11-05T03:09:12.061Z,48.94
2018-11-05T03:11:40.167Z,48.38
2018-11-05T03:14:08.164Z,48.43
2018-11-05T03:16:36.121Z,48.36
2018-11-05T03:19:03.797Z,48.48
2018-11-05T03:21:32.577Z,48.48
2018-11-05T03:24:01.195Z,48.16
2018-11-05T03:26:28.670Z,48.12
2018-11-05T03:28:56.196Z,48.19
2018-11-05T03:31:23.973Z,48.46
2018-11-05T03:33:52.961Z,48.58
2018-11-05T03:36:20.952Z,48.95
2018-11-05T03:38:48.469Z,48.72
2018-11-05T03:41:15.954Z,48.51
2018-11-05T03:43:43.506Z,48.56
2018-11-05T03:46:11.988Z,49.76
2018-11-05T03:48:39.557Z,49.88
2018-11-05T03:51:07.137Z,49.53
2018-11-05T03:53:35.550Z,49.04
2018-11-05T03:56:03.207Z,48.67
2018-11-05T03:58:31.643Z,48.92
2018-11-05T04:01:00.449Z,49.81
2018-11-05T04:03:28.038Z,49.43
2018-11-05T04:05:55.459Z,49.15
2018-11-05T04:08:23.024Z,49.05
2018-11-05T04:10:52.007Z,48.98
2018-11-05T04:13:19.556Z,49.58
2018-11-05T04:15:47.279Z,49.66
2018-11-05T04:18:14.957Z,49.32
2018-11-05T04:20:42.599Z,49.27
2018-11-05T04:23:11.146Z,49.20
2018-11-05T04:25:38.701Z,49.51
2018-11-05T04:28:06.278Z,49.49
2018-11-05T04:30:33.858Z,49.59
2018-11-05T04:33:01.595Z,48.73
2018-11-05T04:35:30.427Z,49.43
2018-11-05T04:37:59.347Z,48.82
2018-11-05T04:40:26.853Z,48.60
2018-11-05T04:42:54.474Z,49.26
2018-11-05T04:45:22.292Z,48.99
2018-11-05T04:47:50.853Z,49.06
2018-11-05T04:50:18.397Z,48.99
2018-11-05T04:52:46.014Z,49.01
2018-11-05T04:55:14.254Z,48.49
2018-11-05T04:57:41.718Z,48.62
2018-11-05T05:00:13.474Z,48.06
2018-11-05T05:02:41.649Z,47.96
2018-11-05T05:05:09.934Z,48.17
2018-11-05T05:07:38.303Z,48.14
2018-11-05T05:10:06.379Z,48.13
2018-11-05T05:12:35.476Z,48.00
2018-11-05T05:15:03.813Z,48.24
2018-11-05T05:17:31.383Z,48.31
2018-11-05T05:19:58.881Z,48.08
2018-11-05T05:22:26.505Z,48.08
2018-11-05T05:24:54.930Z,47.96
2018-11-05T05:27:22.338Z,47.79
2018-11-05T05:29:49.970Z,47.95
2018-11-05T05:32:17.458Z,47.77
2018-11-05T05:34:45.044Z,47.81
2018-11-05T05:37:14.737Z,47.70
2018-11-05T05:39:42.242Z,47.70
2018-11-05T05:42:09.804Z,47.70
2018-11-05T05:44:37.367Z,47.78
2018-11-05T05:47:05.347Z,48.02
2018-11-05T05:49:34.329Z,48.10
2018-11-05T05:52:03.119Z,48.08
2018-11-05T05:54:30.974Z,47.91
2018-11-05T05:57:00.254Z,48.38
2018-11-05T05:59:28.253Z,48.75
2018-11-05T06:01:56.750Z,48.82
2018-11-05T06:04:24.538Z,48.75
2018-11-05T06:06:52.136Z,49.00
2018-11-05T06:09:19.556Z,48.66
2018-11-05T06:11:47.063Z,50.08
2018-11-05T06:14:16.629Z,49.75
2018-11-05T06:16:44.219Z,48.96
2018-11-05T06:19:12.093Z,49.04
2018-11-05T06:21:39.916Z,50.03
2018-11-05T06:24:08.396Z,50.21
2018-11-05T06:26:37.013Z,49.93
2018-11-05T06:29:05.209Z,49.77
2018-11-05T06:31:33.566Z,49.98
2018-11-05T06:34:07.995Z,49.20
2018-11-05T06:36:36.003Z,49.41
2018-11-05T06:39:08.808Z,49.20
2018-11-05T06:41:36.491Z,48.85
2018-11-05T06:44:04.377Z,49.05
2018-11-05T06:46:31.856Z,49.41
2018-11-05T06:49:00.501Z,48.94
2018-11-05T06:51:27.990Z,48.56
2018-11-05T06:53:55.586Z,48.97
2018-11-05T06:56:24.493Z,49.06
2018-11-05T06:58:53.687Z,49.10
2018-11-05T07:01:22.170Z,50.94
2018-11-05T07:03:50.666Z,50.08
2018-11-05T07:06:18.223Z,49.55
2018-11-05T07:08:45.935Z,49.56
2018-11-05T07:11:14.601Z,49.70
2018-11-05T07:13:43.061Z,50.62
2018-11-05T07:16:10.623Z,49.77
2018-11-05T07:18:38.727Z,49.34
2018-11-05T07:21:06.823Z,51.58
2018-11-05T07:23:34.651Z,51.22
2018-11-05T07:26:03.740Z,50.06
2018-11-05T07:28:31.272Z,49.92
2018-11-05T07:30:58.833Z,49.91
2018-11-05T07:33:26.387Z,50.20
2018-11-05T07:35:54.275Z,49.49
2018-11-05T07:38:24.282Z,49.36
2018-11-05T07:40:51.809Z,49.23
2018-11-05T07:43:19.356Z,49.76
2018-11-05T07:45:46.972Z,49.71
2018-11-05T07:48:14.600Z,49.74
2018-11-05T07:50:44.234Z,49.23
2018-11-05T07:53:11.827Z,48.84
2018-11-05T07:55:39.339Z,48.54
2018-11-05T07:58:06.815Z,48.22
2018-11-05T08:00:41.485Z,48.63
2018-11-05T08:03:10.063Z,48.41
2018-11-05T08:05:37.800Z,49.36
2018-11-05T08:08:05.913Z,49.41
2018-11-05T08:10:33.394Z,52.20
2018-11-05T08:13:01.195Z,50.30
2018-11-05T08:15:32.178Z,49.83
2018-11-05T08:17:59.738Z,50.13
2018-11-05T08:20:27.534Z,50.53
2018-11-05T08:22:55.135Z,49.60
2018-11-05T08:25:22.751Z,49.06
2018-11-05T08:27:51.218Z,51.16
2018-11-05T08:30:20.272Z,51.55
2018-11-05T08:32:47.783Z,51.40
2018-11-05T08:35:16.065Z,50.30
2018-11-05T08:37:44.998Z,51.30
2018-11-05T08:40:16.581Z,54.28
2018-11-05T08:42:44.949Z,52.42
2018-11-05T08:45:13.685Z,51.25
2018-11-05T08:47:41.420Z,50.85
2018-11-05T08:50:11.025Z,50.32
2018-11-05T08:52:39.489Z,50.12
2018-11-05T08:55:09.256Z,50.77
2018-11-05T08:57:37.647Z,51.54
2018-11-05T09:00:08.301Z,49.78
2018-11-05T09:02:37.194Z,49.78
2018-11-05T09:05:06.120Z,48.94
2018-11-05T09:07:35.056Z,50.74
2018-11-05T09:10:02.837Z,51.39
2018-11-05T09:12:30.206Z,51.25
2018-11-05T09:14:57.764Z,50.89
2018-11-05T09:17:26.376Z,50.98
2018-11-05T09:19:53.911Z,50.54
2018-11-05T09:22:21.579Z,49.97
2018-11-05T09:24:49.199Z,49.88
2018-11-05T09:27:16.761Z,49.28
2018-11-05T09:29:47.533Z,49.08
2018-11-05T09:32:15.176Z,50.51
2018-11-05T09:34:44.474Z,50.09
2018-11-05T09:40:44.009Z,49.70
2018-11-05T09:43:11.677Z,49.64
2018-11-05T09:45:39.166Z,50.71
2018-11-05T09:48:06.649Z,49.83
2018-11-05T09:50:34.354Z,50.96
2018-11-05T09:53:03.715Z,50.69
2018-11-05T09:55:31.367Z,49.20
2018-11-05T09:57:59.051Z,49.76
2018-11-05T10:00:27.360Z,49.54
2018-11-05T10:03:02.232Z,49.43
2018-11-05T10:05:30.524Z,49.16
2018-11-05T10:07:58.936Z,48.68
2018-11-05T10:10:26.660Z,49.19
2018-11-05T10:12:54.109Z,49.52
2018-11-05T10:15:21.688Z,48.47
2018-11-05T10:17:49.607Z,49.44
2018-11-05T10:20:22.598Z,48.91
2018-11-05T10:22:50.164Z,48.17
2018-11-05T10:25:18.837Z,48.57
2018-11-05T10:27:46.784Z,48.07
2018-11-05T10:30:17.872Z,47.66
2018-11-05T10:32:45.944Z,50.20
2018-11-05T10:35:14.445Z,49.40
2018-11-05T10:37:42.093Z,48.77
2018-11-05T10:40:14.843Z,49.04
2018-11-05T10:42:44.973Z,47.95
2018-11-05T10:45:14.315Z,48.39
2018-11-05T10:47:41.950Z,46.91
2018-11-05T10:50:11.025Z,46.88
2018-11-05T10:52:38.540Z,46.91
2018-11-05T10:55:06.793Z,47.23
2018-11-05T10:57:35.618Z,46.53
2018-11-05T11:00:03.277Z,47.03
2018-11-05T11:02:37.672Z,47.59
2018-11-05T11:05:07.283Z,49.59
2018-11-05T11:07:35.865Z,48.54
2018-11-05T11:10:04.143Z,50.73
2018-11-05T11:12:31.676Z,49.01
2018-11-05T11:14:59.306Z,49.08
2018-11-05T11:17:27.925Z,49.22
2018-11-05T11:21:25.859Z,48.61
2018-11-05T11:23:54.799Z,49.04
2018-11-05T11:26:22.972Z,47.70
2018-11-05T11:28:51.917Z,47.16
2018-11-05T11:31:19.485Z,46.43
2018-11-05T11:33:47.091Z,45.58
2018-11-05T11:36:14.828Z,45.66
2018-11-05T11:38:42.442Z,47.21
2018-11-05T11:41:11.178Z,48.05
2018-11-05T11:43:38.747Z,47.23
2018-11-05T11:46:07.686Z,47.25
2018-11-05T11:48:35.181Z,46.08
2018-11-05T11:51:02.833Z,46.40
2018-11-05T11:53:35.426Z,46.97
2018-11-05T11:56:02.974Z,45.95
2018-11-05T11:58:30.449Z,46.41
2018-11-05T12:00:58.212Z,45.99
2018-11-05T12:03:25.729Z,45.75
2018-11-05T12:05:54.630Z,45.45
2018-11-05T12:08:23.709Z,47.57
2018-11-05T12:10:51.378Z,47.57
2018-11-05T12:13:18.939Z,46.66
2018-11-05T12:15:46.616Z,47.25
2018-11-05T12:18:16.455Z,46.73
2018-11-05T12:20:44.121Z,46.24
2018-11-05T12:23:12.866Z,46.68
2018-11-05T12:25:40.400Z,48.13
2018-11-05T12:28:08.132Z,47.44
2018-11-05T12:30:36.610Z,46.45
2018-11-05T12:33:04.687Z,46.06
2018-11-05T12:35:32.249Z,45.26
2018-11-05T12:37:59.918Z,46.38
2018-11-05T12:40:27.439Z,45.92
2018-11-05T12:42:56.586Z,45.93
2018-11-05T12:45:24.204Z,45.29
2018-11-05T12:47:52.408Z,45.44
2018-11-05T12:50:23.003Z,45.57
2018-11-05T12:52:51.723Z,46.96
2018-11-05T12:55:20.317Z,46.68
2018-11-05T12:57:48.281Z,47.10
2018-11-05T13:00:22.008Z,47.43
2018-11-05T13:03:00.094Z,47.42
2018-11-05T13:05:31.348Z,46.62
2018-11-05T13:07:59.229Z,46.40
2018-11-05T13:10:26.794Z,47.43
2018-11-05T13:12:54.406Z,47.80
2018-11-05T13:15:22.084Z,46.80
2018-11-05T13:17:50.616Z,46.44
2018-11-05T13:20:19.484Z,45.70
2018-11-05T13:22:47.327Z,45.88
2018-11-05T13:25:14.878Z,48.21
2018-11-05T13:27:43.612Z,48.06
2018-11-05T13:30:13.784Z,46.94
2018-11-05T13:32:41.884Z,45.52
2018-11-05T13:35:13.955Z,45.49
2018-11-05T13:37:41.919Z,45.46
2018-11-05T13:40:11.386Z,47.32
2018-11-05T13:42:39.917Z,47.84
2018-11-05T13:45:08.688Z,46.59
2018-11-05T13:47:36.931Z,47.45
2018-11-05T13:50:05.609Z,47.22
2018-11-05T13:52:32.880Z,46.50
2018-11-05T13:55:02.640Z,46.03
2018-11-05T13:57:30.100Z,45.92
2018-11-05T13:59:57.713Z,44.54
2018-11-05T14:02:25.244Z,45.27
2018-11-05T14:04:52.947Z,45.82
2018-11-05T14:07:21.375Z,45.58
2018-11-05T14:09:48.929Z,45.65
2018-11-05T14:12:17.725Z,45.02
2018-11-05T14:14:45.259Z,45.22
2018-11-05T14:17:14.221Z,45.24
2018-11-05T14:19:42.814Z,44.83
2018-11-05T14:22:10.312Z,43.91
2018-11-05T14:24:37.831Z,44.64
2018-11-05T14:27:05.669Z,44.09
2018-11-05T14:29:34.808Z,44.62
2018-11-05T14:32:02.761Z,45.69
2018-11-05T14:34:30.333Z,44.63
2018-11-05T14:36:57.933Z,45.40
2018-11-05T14:39:26.447Z,44.52
2018-11-05T14:41:54.355Z,44.76
2018-11-05T14:44:24.358Z,44.77
2018-11-05T14:46:52.001Z,44.95
2018-11-05T14:49:19.652Z,44.69
2018-11-05T14:51:47.787Z,46.21
2018-11-05T14:54:15.430Z,45.74
2018-11-05T14:56:44.115Z,45.82
2018-11-05T14:59:11.618Z,44.65
2018-11-05T15:01:39.142Z,45.40
2018-11-05T15:04:07.940Z,44.95
2018-11-05T15:06:35.424Z,45.56
2018-11-05T15:09:07.235Z,45.33
2018-11-05T15:11:34.958Z,44.74
2018-11-05T15:14:02.445Z,45.11
2018-11-05T15:16:30.070Z,45.31
2018-11-05T15:18:58.227Z,45.16
2018-11-05T15:21:26.815Z,45.60
2018-11-05T15:23:54.335Z,45.67
2018-11-05T15:26:22.671Z,45.60
2018-11-05T15:28:50.252Z,45.37
2018-11-05T15:31:17.809Z,45.19
2018-11-05T15:33:47.574Z,45.73
2018-11-05T15:36:15.239Z,46.25
2018-11-05T15:38:42.745Z,45.73
2018-11-05T15:41:11.516Z,45.36
2018-11-05T15:43:38.960Z,45.31
2018-11-05T15:46:08.181Z,45.83
2018-11-05T15:48:35.805Z,46.22
2018-11-05T15:51:03.508Z,45.45
2018-11-05T15:53:31.509Z,45.34
2018-11-05T15:55:59.371Z,45.08
2018-11-05T15:58:28.968Z,44.64
2018-11-05T16:00:56.532Z,44.64
2018-11-05T16:03:24.036Z,45.13
2018-11-05T16:05:51.693Z,44.63
2018-11-05T16:08:19.306Z,45.08
2018-11-05T16:10:48.174Z,44.97
2018-11-05T16:13:15.831Z,44.80
2018-11-05T16:15:43.397Z,46.01
2018-11-05T16:18:12.181Z,46.73
2018-11-05T16:20:39.687Z,46.85
2018-11-05T16:23:09.408Z,46.92
2018-11-05T16:25:37.057Z,46.53
2018-11-05T16:28:05.392Z,45.94
2018-11-05T16:30:33.077Z,46.20
2018-11-05T16:33:00.452Z,46.28
2018-11-05T16:35:29.245Z,47.34
2018-11-05T16:37:56.658Z,46.55
2018-11-05T16:40:25.481Z,46.63
2018-11-05T16:42:53.109Z,46.92
2018-11-05T16:45:20.680Z,46.70
2018-11-05T16:47:50.583Z,46.66
2018-11-05T16:50:23.000Z,46.27
2018-11-05T16:52:50.559Z,46.12
2018-11-05T16:55:18.425Z,46.54
2018-11-05T16:57:46.129Z,46.17
2018-11-05T17:00:15.080Z,46.14
2018-11-05T17:02:43.442Z,45.87
2018-11-05T17:05:10.995Z,45.27
2018-11-05T17:07:38.689Z,47.91
2018-11-05T17:10:07.737Z,47.05
2018-11-05T17:12:37.679Z,47.03
2018-11-05T17:15:09.458Z,46.03
2018-11-05T17:17:37.508Z,46.29
2018-11-05T17:20:07.114Z,45.66
2018-11-05T17:22:35.289Z,45.17
2018-11-05T17:25:03.933Z,44.96
2018-11-05T17:27:31.491Z,45.29
2018-11-05T17:29:59.239Z,45.28
2018-11-05T17:32:26.992Z,45.47
2018-11-05T17:34:54.878Z,45.06
2018-11-05T17:37:24.641Z,44.57
2018-11-05T17:39:52.166Z,44.56
2018-11-05T17:42:19.824Z,44.99
2018-11-05T17:44:47.957Z,45.38
2018-11-05T17:47:15.459Z,45.32
2018-11-05T17:49:44.198Z,45.31
2018-11-05T17:52:11.797Z,45.27
2018-11-05T17:54:39.693Z,45.89
2018-11-05T17:57:08.465Z,45.36
2018-11-05T17:59:36.089Z,45.73
2018-11-05T18:02:04.982Z,45.80
2018-11-05T18:04:32.555Z,45.92
2018-11-05T18:07:00.115Z,45.57
2018-11-05T18:09:27.834Z,45.45
2018-11-05T18:11:55.345Z,45.55
2018-11-05T18:14:23.937Z,46.41
2018-11-05T18:16:51.798Z,46.73
2018-11-05T18:19:19.382Z,46.54
2018-11-05T18:21:47.749Z,46.68
2018-11-05T18:24:15.401Z,45.96
2018-11-05T18:26:45.222Z,45.77
2018-11-05T18:29:13.400Z,46.23
2018-11-05T18:31:41.749Z,46.22
2018-11-05T18:34:09.334Z,46.73
2018-11-05T18:36:37.442Z,46.33
2018-11-05T18:39:08.617Z,46.58
2018-11-05T18:41:36.339Z,47.03
2018-11-05T18:44:05.167Z,46.44
2018-11-05T18:46:32.776Z,47.32
2018-11-05T18:49:00.400Z,47.32
2018-11-05T18:51:30.263Z,46.79
2018-11-05T18:53:58.151Z,46.78
2018-11-05T18:56:25.869Z,46.51
2018-11-05T18:58:53.449Z,46.35
2018-11-05T19:01:20.985Z,46.09
2018-11-05T19:03:49.551Z,46.05
2018-11-05T19:06:17.133Z,46.36
2018-11-05T19:08:44.610Z,46.12
2018-11-05T19:11:12.080Z,46.47
2018-11-05T19:13:39.702Z,46.35
2018-11-05T19:16:09.366Z,46.66
2018-11-05T19:18:36.914Z,46.61
2018-11-05T19:21:06.066Z,46.45
2018-11-05T19:23:34.675Z,46.30
2018-11-05T19:26:02.172Z,46.98
2018-11-05T19:28:31.098Z,46.21
2018-11-05T19:30:58.609Z,46.82
2018-11-05T19:33:26.582Z,46.69
2018-11-05T19:35:54.069Z,46.61
2018-11-05T19:38:21.601Z,46.71
2018-11-05T19:40:51.098Z,46.66
2018-11-05T19:43:19.849Z,46.91
2018-11-05T19:45:47.290Z,46.42
2018-11-05T19:48:14.833Z,46.92
2018-11-05T19:50:43.556Z,47.24
2018-11-05T19:53:12.176Z,47.82
2018-11-05T19:55:40.063Z,47.70
2018-11-05T19:58:07.753Z,47.78
2018-11-05T20:00:36.315Z,48.25
2018-11-05T20:03:03.877Z,47.82
2018-11-05T20:05:32.768Z,48.01
2018-11-05T20:08:00.203Z,48.27
2018-11-05T20:10:27.895Z,47.89
2018-11-05T20:12:55.607Z,49.24
2018-11-05T20:15:23.226Z,49.63
2018-11-05T20:17:53.899Z,49.69
2018-11-05T20:20:23.002Z,50.26
2018-11-05T20:22:50.531Z,49.30
2018-11-05T20:25:19.323Z,50.28
2018-11-05T20:27:47.599Z,50.19
2018-11-05T20:30:18.258Z,50.75
2018-11-05T20:32:47.010Z,50.44
2018-11-05T20:35:14.723Z,49.22
2018-11-05T20:37:42.246Z,49.56
2018-11-05T20:40:14.380Z,48.66
2018-11-05T20:42:44.577Z,48.68
2018-11-05T20:45:12.984Z,48.63
2018-11-05T20:47:40.957Z,48.29
2018-11-05T20:50:10.722Z,47.94
2018-11-05T20:52:38.693Z,47.67
2018-11-05T20:55:07.350Z,47.88
2018-11-05T20:57:35.086Z,47.74
2018-11-05T21:00:02.790Z,48.27
2018-11-05T21:02:30.817Z,49.21
2018-11-05T21:04:58.418Z,49.35
2018-11-05T21:07:26.869Z,50.11
2018-11-05T21:09:55.046Z,50.19
2018-11-05T21:12:22.633Z,48.99
2018-11-05T21:14:50.812Z,49.65
2018-11-05T21:17:18.462Z,48.80
2018-11-05T21:19:46.718Z,48.51
2018-11-05T21:22:14.892Z,49.20
2018-11-05T21:24:43.513Z,48.96
2018-11-05T21:27:11.500Z,49.08
2018-11-05T21:29:39.113Z,49.55
2018-11-05T21:32:07.522Z,49.91
2018-11-05T21:34:35.032Z,49.89
2018-11-05T21:37:02.590Z,49.62
2018-11-05T21:39:30.626Z,49.07
2018-11-05T21:41:59.567Z,49.11
2018-11-05T21:44:27.656Z,49.30
2018-11-05T21:46:55.524Z,48.43
2018-11-05T21:49:23.328Z,49.38
2018-11-05T21:51:51.893Z,50.45
2018-11-05T21:54:19.552Z,49.37
2018-11-05T21:56:50.185Z,49.40
2018-11-05T21:59:17.765Z,49.36
2018-11-05T22:01:45.643Z,49.09
2018-11-05T22:04:13.880Z,49.22
2018-11-05T22:06:41.644Z,48.98
2018-11-05T22:09:09.791Z,48.29
2018-11-05T22:11:37.792Z,48.79
2018-11-05T22:14:05.426Z,50.45
2018-11-05T22:16:33.454Z,49.29
2018-11-05T22:19:01.567Z,49.09
2018-11-05T22:21:30.809Z,48.53
2018-11-05T22:23:58.815Z,48.67
2018-11-05T22:26:26.723Z,48.56
2018-11-05T22:28:55.327Z,48.23
2018-11-05T22:31:22.807Z,48.22
2018-11-05T22:33:50.884Z,48.27
2018-11-05T22:36:18.416Z,47.78
2018-11-05T22:38:45.892Z,47.77
2018-11-05T22:41:14.898Z,48.03
2018-11-05T22:43:42.422Z,48.23
2018-11-05T22:46:11.260Z,48.27
2018-11-05T22:48:38.797Z,48.36
2018-11-05T22:51:06.401Z,48.30
2018-11-05T22:53:35.950Z,47.61
2018-11-05T22:56:03.527Z,48.22
2018-11-05T22:58:31.520Z,48.40
2018-11-05T23:01:02.857Z,47.98
2018-11-05T23:03:30.886Z,47.78
2018-11-05T23:05:59.350Z,47.93
2018-11-05T23:08:27.427Z,47.92
2018-11-05T23:10:56.945Z,47.48
2018-11-05T23:13:24.552Z,47.69
2018-11-05T23:15:52.201Z,47.66
2018-11-05T23:18:20.998Z,47.78
2018-11-05T23:20:48.687Z,48.04
2018-11-05T23:23:16.678Z,48.04
2018-11-05T23:25:44.853Z,47.49
2018-11-05T23:28:12.358Z,47.55
2018-11-05T23:30:40.328Z,48.02
2018-11-05T23:33:08.212Z,48.33
2018-11-05T23:35:37.127Z,48.39
2018-11-05T23:38:04.832Z,48.23
2018-11-05T23:40:32.821Z,47.82
2018-11-05T23:43:00.905Z,48.23
2018-11-05T23:45:28.462Z,48.16
2018-11-05T23:47:56.738Z,47.72
2018-11-05T23:50:24.194Z,48.41
2018-11-05T23:52:51.679Z,47.84
2018-11-05T23:55:19.645Z,48.64
2018-11-05T23:57:47.500Z,48.73
